sensor_id;sensor_type;location;lat;lon;timestamp;temperature;humidity
10155;DHT22;5118;48.570;7.916;2023-02-16T00:00:46;0.30;99.90
10155;DHT22;5118;48.570;7.916;2023-02-16T00:03:18;0.30;99.90
10155;DHT22;5118;48.570;7.916;2023-02-16T00:05:49;0.20;99.90
10155;DHT22;5118;48.570;7.916;2023-02-16T00:08:17;0.20;99.90
10155;DHT22;5118;48.570;7.916;2023-02-16T00:10:46;0.20;99.90
10155;DHT22;5118;48.570;7.916;2023-02-16T00:13:29;0.20;99.90
10155;DHT22;5118;48.570;7.916;2023-02-16T00:16:16;0.20;99.90
10155;DHT22;5118;48.570;7.916;2023-02-16T00:18:47;0.20;99.90
10155;DHT22;5118;48.570;7.916;2023-02-16T00:21:16;0.20;99.90
10155;DHT22;5118;48.570;7.916;2023-02-16T00:23:46;0.20;99.90
10155;DHT22;5118;48.570;7.916;2023-02-16T00:26:18;0.10;99.90
10155;DHT22;5118;48.570;7.916;2023-02-16T00:28:49;0.10;99.90
10155;DHT22;5118;48.570;7.916;2023-02-16T00:31:21;0.10;99.90
10155;DHT22;5118;48.570;7.916;2023-02-16T00:33:52;0.10;99.90
10155;DHT22;5118;48.570;7.916;2023-02-16T00:36:21;0.00;99.90
10155;DHT22;5118;48.570;7.916;2023-02-16T00:38:51;0.00;99.90
10155;DHT22;5118;48.570;7.916;2023-02-16T00:41:22;0.00;99.90
10155;DHT22;5118;48.570;7.916;2023-02-16T00:44:14;-0.10;99.90
10155;DHT22;5118;48.570;7.916;2023-02-16T00:46:44;-0.10;99.90
10155;DHT22;5118;48.570;7.916;2023-02-16T00:49:15;-0.20;99.90
10155;DHT22;5118;48.570;7.916;2023-02-16T00:51:47;-0.20;99.90
10155;DHT22;5118;48.570;7.916;2023-02-16T00:54:16;-0.20;99.90
10155;DHT22;5118;48.570;7.916;2023-02-16T00:56:45;-0.20;99.90
10155;DHT22;5118;48.570;7.916;2023-02-16T00:59:17;-0.20;99.90
10155;DHT22;5118;48.570;7.916;2023-02-16T01:01:48;-0.30;99.90
10155;DHT22;5118;48.570;7.916;2023-02-16T01:04:22;-0.30;99.90
10155;DHT22;5118;48.570;7.916;2023-02-16T01:06:51;-0.30;99.90
10155;DHT22;5118;48.570;7.916;2023-02-16T01:09:37;-0.30;99.90
10155;DHT22;5118;48.570;7.916;2023-02-16T01:12:24;-0.40;99.90
10155;DHT22;5118;48.570;7.916;2023-02-16T01:14:54;-0.40;99.90
10155;DHT22;5118;48.570;7.916;2023-02-16T01:17:24;-0.40;99.90
10155;DHT22;5118;48.570;7.916;2023-02-16T01:19:54;-0.40;99.90
10155;DHT22;5118;48.570;7.916;2023-02-16T01:22:24;-0.40;99.90
10155;DHT22;5118;48.570;7.916;2023-02-16T01:24:53;-0.40;99.90
10155;DHT22;5118;48.570;7.916;2023-02-16T01:27:24;-0.50;99.90
10155;DHT22;5118;48.570;7.916;2023-02-16T01:29:53;-0.50;99.90
10155;DHT22;5118;48.570;7.916;2023-02-16T01:32:22;-0.50;99.90
10155;DHT22;5118;48.570;7.916;2023-02-16T01:34:51;-0.50;99.90
10155;DHT22;5118;48.570;7.916;2023-02-16T01:37:21;-0.40;99.90
10155;DHT22;5118;48.570;7.916;2023-02-16T01:39:50;-0.40;99.90
10155;DHT22;5118;48.570;7.916;2023-02-16T01:42:31;-0.40;99.90
10155;DHT22;5118;48.570;7.916;2023-02-16T01:45:04;-0.40;99.90
10155;DHT22;5118;48.570;7.916;2023-02-16T01:47:38;-0.30;99.90
10155;DHT22;5118;48.570;7.916;2023-02-16T01:50:16;-0.30;99.90
10155;DHT22;5118;48.570;7.916;2023-02-16T01:52:51;-0.40;99.90
10155;DHT22;5118;48.570;7.916;2023-02-16T01:55:24;-0.30;99.90
10155;DHT22;5118;48.570;7.916;2023-02-16T01:57:58;-0.30;99.90
10155;DHT22;5118;48.570;7.916;2023-02-16T02:01:19;-0.40;99.90
10155;DHT22;5118;48.570;7.916;2023-02-16T02:03:49;-0.40;99.90
10155;DHT22;5118;48.570;7.916;2023-02-16T02:06:35;-0.40;99.90
10155;DHT22;5118;48.570;7.916;2023-02-16T02:09:09;-0.50;99.90
10155;DHT22;5118;48.570;7.916;2023-02-16T02:11:40;-0.50;99.90
10155;DHT22;5118;48.570;7.916;2023-02-16T02:14:14;-0.60;99.90
10155;DHT22;5118;48.570;7.916;2023-02-16T02:16:55;-0.60;99.90
10155;DHT22;5118;48.570;7.916;2023-02-16T02:19:27;-0.50;99.90
10155;DHT22;5118;48.570;7.916;2023-02-16T02:22:16;-0.50;99.90
10155;DHT22;5118;48.570;7.916;2023-02-16T02:25:30;-0.50;99.90
10155;DHT22;5118;48.570;7.916;2023-02-16T02:28:09;-0.50;99.90
10155;DHT22;5118;48.570;7.916;2023-02-16T02:30:47;-0.50;99.90
10155;DHT22;5118;48.570;7.916;2023-02-16T02:33:33;-0.50;99.90
10155;DHT22;5118;48.570;7.916;2023-02-16T02:36:13;-0.40;99.90
10155;DHT22;5118;48.570;7.916;2023-02-16T02:38:55;-0.40;99.90
10155;DHT22;5118;48.570;7.916;2023-02-16T02:41:29;-0.50;99.90
10155;DHT22;5118;48.570;7.916;2023-02-16T02:44:19;-0.50;99.90
10155;DHT22;5118;48.570;7.916;2023-02-16T02:46:48;-0.50;99.90
10155;DHT22;5118;48.570;7.916;2023-02-16T02:49:19;-0.50;99.90
10155;DHT22;5118;48.570;7.916;2023-02-16T02:51:48;-0.50;99.90
10155;DHT22;5118;48.570;7.916;2023-02-16T02:54:19;-0.50;99.90
10155;DHT22;5118;48.570;7.916;2023-02-16T02:57:15;-0.50;99.90
10155;DHT22;5118;48.570;7.916;2023-02-16T03:00:05;-0.50;99.90
10155;DHT22;5118;48.570;7.916;2023-02-16T03:02:57;-0.50;99.90
10155;DHT22;5118;48.570;7.916;2023-02-16T03:05:52;-0.50;99.90
10155;DHT22;5118;48.570;7.916;2023-02-16T03:08:29;-0.50;99.90
10155;DHT22;5118;48.570;7.916;2023-02-16T03:11:02;-0.50;99.90
10155;DHT22;5118;48.570;7.916;2023-02-16T03:13:52;-0.50;99.90
10155;DHT22;5118;48.570;7.916;2023-02-16T03:16:26;-0.60;99.90
10155;DHT22;5118;48.570;7.916;2023-02-16T03:18:57;-0.60;99.90
10155;DHT22;5118;48.570;7.916;2023-02-16T03:21:45;-0.60;99.90
10155;DHT22;5118;48.570;7.916;2023-02-16T03:24:31;-0.60;99.90
10155;DHT22;5118;48.570;7.916;2023-02-16T03:27:21;-0.60;99.90
10155;DHT22;5118;48.570;7.916;2023-02-16T03:30:10;-0.70;99.90
10155;DHT22;5118;48.570;7.916;2023-02-16T03:32:42;-0.70;99.90
10155;DHT22;5118;48.570;7.916;2023-02-16T03:35:11;-0.80;99.90
10155;DHT22;5118;48.570;7.916;2023-02-16T03:37:40;-0.80;99.90
10155;DHT22;5118;48.570;7.916;2023-02-16T03:40:12;-0.90;99.90
10155;DHT22;5118;48.570;7.916;2023-02-16T03:42:59;-1.00;99.90
10155;DHT22;5118;48.570;7.916;2023-02-16T03:45:28;-1.00;99.90
10155;DHT22;5118;48.570;7.916;2023-02-16T03:47:58;-1.10;99.90
10155;DHT22;5118;48.570;7.916;2023-02-16T03:50:26;-1.10;99.90
10155;DHT22;5118;48.570;7.916;2023-02-16T03:52:55;-1.20;99.90
10155;DHT22;5118;48.570;7.916;2023-02-16T03:55:34;-1.30;99.90
10155;DHT22;5118;48.570;7.916;2023-02-16T03:58:03;-1.40;99.90
10155;DHT22;5118;48.570;7.916;2023-02-16T04:00:32;-1.40;99.90
10155;DHT22;5118;48.570;7.916;2023-02-16T04:03:02;-1.50;99.90
10155;DHT22;5118;48.570;7.916;2023-02-16T04:05:31;-1.60;99.90
10155;DHT22;5118;48.570;7.916;2023-02-16T04:07:59;-1.70;99.90
10155;DHT22;5118;48.570;7.916;2023-02-16T04:10:28;-1.70;99.90
10155;DHT22;5118;48.570;7.916;2023-02-16T04:12:56;-1.80;99.90
10155;DHT22;5118;48.570;7.916;2023-02-16T04:15:25;-1.80;99.90
10155;DHT22;5118;48.570;7.916;2023-02-16T04:17:54;-1.90;99.90
10155;DHT22;5118;48.570;7.916;2023-02-16T04:20:26;-2.00;99.90
10155;DHT22;5118;48.570;7.916;2023-02-16T04:22:55;-2.00;99.90
10155;DHT22;5118;48.570;7.916;2023-02-16T04:25:24;-2.10;99.90
10155;DHT22;5118;48.570;7.916;2023-02-16T04:27:52;-2.10;99.90
10155;DHT22;5118;48.570;7.916;2023-02-16T04:30:23;-2.10;99.90
10155;DHT22;5118;48.570;7.916;2023-02-16T04:32:51;-2.10;99.90
10155;DHT22;5118;48.570;7.916;2023-02-16T04:35:20;-2.20;99.90
10155;DHT22;5118;48.570;7.916;2023-02-16T04:37:50;-2.20;99.90
10155;DHT22;5118;48.570;7.916;2023-02-16T04:40:18;-2.20;99.90
10155;DHT22;5118;48.570;7.916;2023-02-16T04:42:46;-2.20;99.90
10155;DHT22;5118;48.570;7.916;2023-02-16T04:45:15;-2.20;99.90
10155;DHT22;5118;48.570;7.916;2023-02-16T04:47:43;-2.20;99.90
10155;DHT22;5118;48.570;7.916;2023-02-16T04:50:12;-2.30;99.90
10155;DHT22;5118;48.570;7.916;2023-02-16T04:52:40;-2.30;99.90
10155;DHT22;5118;48.570;7.916;2023-02-16T04:55:09;-2.30;99.90
10155;DHT22;5118;48.570;7.916;2023-02-16T04:57:38;-2.30;99.90
10155;DHT22;5118;48.570;7.916;2023-02-16T05:00:09;-2.40;99.90
10155;DHT22;5118;48.570;7.916;2023-02-16T05:02:38;-2.40;99.90
10155;DHT22;5118;48.570;7.916;2023-02-16T05:05:07;-2.40;99.90
10155;DHT22;5118;48.570;7.916;2023-02-16T05:07:35;-2.40;99.90
10155;DHT22;5118;48.570;7.916;2023-02-16T05:10:05;-2.40;99.90
10155;DHT22;5118;48.570;7.916;2023-02-16T05:12:35;-2.50;99.90
10155;DHT22;5118;48.570;7.916;2023-02-16T05:15:21;-2.50;99.90
10155;DHT22;5118;48.570;7.916;2023-02-16T05:17:49;-2.50;99.90
10155;DHT22;5118;48.570;7.916;2023-02-16T05:20:17;-2.50;99.90
10155;DHT22;5118;48.570;7.916;2023-02-16T05:22:46;-2.60;99.90
10155;DHT22;5118;48.570;7.916;2023-02-16T05:25:14;-2.60;99.90
10155;DHT22;5118;48.570;7.916;2023-02-16T05:27:44;-2.60;99.90
10155;DHT22;5118;48.570;7.916;2023-02-16T05:30:13;-2.60;99.90
10155;DHT22;5118;48.570;7.916;2023-02-16T05:32:41;-2.60;99.90
10155;DHT22;5118;48.570;7.916;2023-02-16T05:35:10;-2.60;99.90
10155;DHT22;5118;48.570;7.916;2023-02-16T05:37:38;-2.60;99.90
10155;DHT22;5118;48.570;7.916;2023-02-16T05:40:09;-2.60;99.90
10155;DHT22;5118;48.570;7.916;2023-02-16T05:42:38;-2.60;99.90
10155;DHT22;5118;48.570;7.916;2023-02-16T05:45:08;-2.60;99.90
10155;DHT22;5118;48.570;7.916;2023-02-16T05:47:37;-2.60;99.90
10155;DHT22;5118;48.570;7.916;2023-02-16T05:50:06;-2.60;99.90
10155;DHT22;5118;48.570;7.916;2023-02-16T05:52:36;-2.60;99.90
10155;DHT22;5118;48.570;7.916;2023-02-16T05:55:05;-2.60;99.90
10155;DHT22;5118;48.570;7.916;2023-02-16T05:57:33;-2.60;99.90
10155;DHT22;5118;48.570;7.916;2023-02-16T06:00:03;-2.60;99.90
10155;DHT22;5118;48.570;7.916;2023-02-16T06:02:33;-2.50;99.90
10155;DHT22;5118;48.570;7.916;2023-02-16T06:05:02;-2.60;99.90
10155;DHT22;5118;48.570;7.916;2023-02-16T06:07:30;-2.50;99.90
10155;DHT22;5118;48.570;7.916;2023-02-16T06:09:58;-2.60;99.90
10155;DHT22;5118;48.570;7.916;2023-02-16T06:12:27;-2.60;99.90
10155;DHT22;5118;48.570;7.916;2023-02-16T06:14:55;-2.60;99.90
10155;DHT22;5118;48.570;7.916;2023-02-16T06:17:23;-2.60;99.90
10155;DHT22;5118;48.570;7.916;2023-02-16T06:19:53;-2.70;99.90
10155;DHT22;5118;48.570;7.916;2023-02-16T06:22:21;-2.70;99.90
10155;DHT22;5118;48.570;7.916;2023-02-16T06:24:49;-2.80;99.90
10155;DHT22;5118;48.570;7.916;2023-02-16T06:27:17;-2.80;99.90
10155;DHT22;5118;48.570;7.916;2023-02-16T06:29:46;-2.80;99.90
10155;DHT22;5118;48.570;7.916;2023-02-16T06:32:14;-2.80;99.90
10155;DHT22;5118;48.570;7.916;2023-02-16T06:34:44;-2.90;99.90
10155;DHT22;5118;48.570;7.916;2023-02-16T06:37:14;-2.80;99.90
10155;DHT22;5118;48.570;7.916;2023-02-16T06:39:42;-2.90;99.90
10155;DHT22;5118;48.570;7.916;2023-02-16T06:42:10;-2.90;99.90
10155;DHT22;5118;48.570;7.916;2023-02-16T06:44:38;-2.90;99.90
10155;DHT22;5118;48.570;7.916;2023-02-16T06:47:10;-2.80;99.90
10155;DHT22;5118;48.570;7.916;2023-02-16T06:49:38;-2.80;99.90
10155;DHT22;5118;48.570;7.916;2023-02-16T06:52:06;-2.80;99.90
10155;DHT22;5118;48.570;7.916;2023-02-16T06:54:36;-2.80;99.90
10155;DHT22;5118;48.570;7.916;2023-02-16T06:57:04;-2.70;99.90
10155;DHT22;5118;48.570;7.916;2023-02-16T06:59:33;-2.70;99.90
10155;DHT22;5118;48.570;7.916;2023-02-16T07:02:01;-2.70;99.90
10155;DHT22;5118;48.570;7.916;2023-02-16T07:04:29;-2.60;99.90
10155;DHT22;5118;48.570;7.916;2023-02-16T07:06:57;-2.60;99.90
10155;DHT22;5118;48.570;7.916;2023-02-16T07:09:46;-2.50;99.90
10155;DHT22;5118;48.570;7.916;2023-02-16T07:12:33;-2.50;99.90
10155;DHT22;5118;48.570;7.916;2023-02-16T07:15:01;-2.40;99.90
10155;DHT22;5118;48.570;7.916;2023-02-16T07:17:49;-2.40;99.90
10155;DHT22;5118;48.570;7.916;2023-02-16T07:20:17;-2.30;99.90
10155;DHT22;5118;48.570;7.916;2023-02-16T07:22:46;-2.30;99.90
10155;DHT22;5118;48.570;7.916;2023-02-16T07:25:15;-2.20;99.90
10155;DHT22;5118;48.570;7.916;2023-02-16T07:27:44;-2.20;99.90
10155;DHT22;5118;48.570;7.916;2023-02-16T07:30:13;-2.10;99.90
10155;DHT22;5118;48.570;7.916;2023-02-16T07:32:42;-2.10;99.90
10155;DHT22;5118;48.570;7.916;2023-02-16T07:35:10;-2.00;99.90
10155;DHT22;5118;48.570;7.916;2023-02-16T07:37:39;-1.90;99.90
10155;DHT22;5118;48.570;7.916;2023-02-16T07:40:08;-1.60;99.90
10155;DHT22;5118;48.570;7.916;2023-02-16T07:42:37;-1.40;99.90
10155;DHT22;5118;48.570;7.916;2023-02-16T07:45:06;-1.20;99.90
10155;DHT22;5118;48.570;7.916;2023-02-16T07:47:35;-1.00;99.90
10155;DHT22;5118;48.570;7.916;2023-02-16T07:50:04;-0.90;99.90
10155;DHT22;5118;48.570;7.916;2023-02-16T07:52:33;-0.90;99.90
10155;DHT22;5118;48.570;7.916;2023-02-16T07:55:01;-0.80;99.90
10155;DHT22;5118;48.570;7.916;2023-02-16T07:57:29;-0.80;99.90
10155;DHT22;5118;48.570;7.916;2023-02-16T07:59:59;-0.70;99.90
10155;DHT22;5118;48.570;7.916;2023-02-16T08:02:37;-0.70;99.90
10155;DHT22;5118;48.570;7.916;2023-02-16T08:05:07;-0.60;99.90
10155;DHT22;5118;48.570;7.916;2023-02-16T08:07:36;-0.60;99.90
10155;DHT22;5118;48.570;7.916;2023-02-16T08:10:06;-0.50;99.90
10155;DHT22;5118;48.570;7.916;2023-02-16T08:12:35;-0.40;99.90
10155;DHT22;5118;48.570;7.916;2023-02-16T08:15:06;-0.30;99.90
10155;DHT22;5118;48.570;7.916;2023-02-16T08:17:35;-0.20;99.90
10155;DHT22;5118;48.570;7.916;2023-02-16T08:20:06;-0.10;99.90
10155;DHT22;5118;48.570;7.916;2023-02-16T08:22:35;0.00;99.90
10155;DHT22;5118;48.570;7.916;2023-02-16T08:25:04;0.10;99.90
10155;DHT22;5118;48.570;7.916;2023-02-16T08:27:33;0.20;99.90
10155;DHT22;5118;48.570;7.916;2023-02-16T08:30:02;0.30;99.90
10155;DHT22;5118;48.570;7.916;2023-02-16T08:32:31;0.40;99.90
10155;DHT22;5118;48.570;7.916;2023-02-16T08:35:00;0.50;99.90
10155;DHT22;5118;48.570;7.916;2023-02-16T08:37:28;0.60;99.90
10155;DHT22;5118;48.570;7.916;2023-02-16T08:39:56;0.70;99.90
10155;DHT22;5118;48.570;7.916;2023-02-16T08:42:26;0.80;99.90
10155;DHT22;5118;48.570;7.916;2023-02-16T08:44:55;0.80;99.90
10155;DHT22;5118;48.570;7.916;2023-02-16T08:47:24;1.00;99.90
10155;DHT22;5118;48.570;7.916;2023-02-16T08:49:54;1.10;99.90
10155;DHT22;5118;48.570;7.916;2023-02-16T08:52:22;1.20;99.90
10155;DHT22;5118;48.570;7.916;2023-02-16T08:54:50;1.30;99.90
10155;DHT22;5118;48.570;7.916;2023-02-16T08:57:19;1.60;99.90
10155;DHT22;5118;48.570;7.916;2023-02-16T08:59:47;1.80;99.90
10155;DHT22;5118;48.570;7.916;2023-02-16T09:02:35;1.90;99.90
10155;DHT22;5118;48.570;7.916;2023-02-16T09:05:08;2.20;99.90
10155;DHT22;5118;48.570;7.916;2023-02-16T09:07:37;2.40;99.90
10155;DHT22;5118;48.570;7.916;2023-02-16T09:10:06;2.50;99.90
10155;DHT22;5118;48.570;7.916;2023-02-16T09:12:34;2.60;99.90
10155;DHT22;5118;48.570;7.916;2023-02-16T09:15:03;2.70;99.90
10155;DHT22;5118;48.570;7.916;2023-02-16T09:17:31;2.90;99.90
10155;DHT22;5118;48.570;7.916;2023-02-16T09:20:00;3.10;99.90
10155;DHT22;5118;48.570;7.916;2023-02-16T09:22:30;3.20;99.90
10155;DHT22;5118;48.570;7.916;2023-02-16T09:24:59;3.40;99.90
10155;DHT22;5118;48.570;7.916;2023-02-16T09:27:27;3.50;99.90
10155;DHT22;5118;48.570;7.916;2023-02-16T09:29:55;3.70;99.90
10155;DHT22;5118;48.570;7.916;2023-02-16T09:32:27;3.80;99.90
10155;DHT22;5118;48.570;7.916;2023-02-16T09:34:55;4.00;99.90
10155;DHT22;5118;48.570;7.916;2023-02-16T09:37:24;4.20;99.90
10155;DHT22;5118;48.570;7.916;2023-02-16T09:39:54;4.30;99.90
10155;DHT22;5118;48.570;7.916;2023-02-16T09:42:31;4.50;99.90
10155;DHT22;5118;48.570;7.916;2023-02-16T09:45:05;4.70;99.90
10155;DHT22;5118;48.570;7.916;2023-02-16T09:47:37;5.00;99.90
10155;DHT22;5118;48.570;7.916;2023-02-16T09:50:13;5.10;99.90
10155;DHT22;5118;48.570;7.916;2023-02-16T09:52:49;5.40;99.90
10155;DHT22;5118;48.570;7.916;2023-02-16T09:55:21;5.60;99.90
10155;DHT22;5118;48.570;7.916;2023-02-16T09:58:00;5.80;99.90
10155;DHT22;5118;48.570;7.916;2023-02-16T10:00:43;6.00;99.90
10155;DHT22;5118;48.570;7.916;2023-02-16T10:03:31;6.20;99.90
10155;DHT22;5118;48.570;7.916;2023-02-16T10:06:15;6.50;99.90
10155;DHT22;5118;48.570;7.916;2023-02-16T10:08:50;6.70;99.90
10155;DHT22;5118;48.570;7.916;2023-02-16T10:11:24;6.90;99.90
10155;DHT22;5118;48.570;7.916;2023-02-16T10:14:16;7.00;99.90
10155;DHT22;5118;48.570;7.916;2023-02-16T10:16:51;7.20;99.90
10155;DHT22;5118;48.570;7.916;2023-02-16T10:19:24;7.40;99.90
10155;DHT22;5118;48.570;7.916;2023-02-16T10:21:56;7.50;99.90
10155;DHT22;5118;48.570;7.916;2023-02-16T10:24:30;7.70;99.90
10155;DHT22;5118;48.570;7.916;2023-02-16T10:27:04;7.90;99.90
10155;DHT22;5118;48.570;7.916;2023-02-16T10:29:34;8.00;99.90
10155;DHT22;5118;48.570;7.916;2023-02-16T10:32:10;8.10;99.90
10155;DHT22;5118;48.570;7.916;2023-02-16T10:34:49;8.30;99.90
10155;DHT22;5118;48.570;7.916;2023-02-16T10:37:27;8.50;99.90
10155;DHT22;5118;48.570;7.916;2023-02-16T10:40:17;8.60;99.90
10155;DHT22;5118;48.570;7.916;2023-02-16T10:42:54;8.90;99.90
10155;DHT22;5118;48.570;7.916;2023-02-16T10:45:30;9.40;99.90
10155;DHT22;5118;48.570;7.916;2023-02-16T10:48:00;9.90;99.90
10155;DHT22;5118;48.570;7.916;2023-02-16T10:50:31;10.40;99.90
10155;DHT22;5118;48.570;7.916;2023-02-16T10:53:03;10.90;99.90
10155;DHT22;5118;48.570;7.916;2023-02-16T10:55:32;11.40;99.90
10155;DHT22;5118;48.570;7.916;2023-02-16T10:58:02;11.90;99.90
10155;DHT22;5118;48.570;7.916;2023-02-16T11:00:46;12.40;99.90
10155;DHT22;5118;48.570;7.916;2023-02-16T11:03:16;13.10;99.90
10155;DHT22;5118;48.570;7.916;2023-02-16T11:05:45;13.70;99.90
10155;DHT22;5118;48.570;7.916;2023-02-16T11:08:13;14.10;99.90
10155;DHT22;5118;48.570;7.916;2023-02-16T11:10:44;14.50;99.90
10155;DHT22;5118;48.570;7.916;2023-02-16T11:13:31;14.70;99.90
10155;DHT22;5118;48.570;7.916;2023-02-16T11:16:03;14.70;99.90
10155;DHT22;5118;48.570;7.916;2023-02-16T11:18:35;14.70;99.90
10155;DHT22;5118;48.570;7.916;2023-02-16T11:21:06;14.70;99.90
10155;DHT22;5118;48.570;7.916;2023-02-16T11:23:36;14.80;99.90
10155;DHT22;5118;48.570;7.916;2023-02-16T11:26:20;15.30;99.90
10155;DHT22;5118;48.570;7.916;2023-02-16T11:28:52;15.80;99.90
10155;DHT22;5118;48.570;7.916;2023-02-16T11:31:24;16.30;99.90
10155;DHT22;5118;48.570;7.916;2023-02-16T11:33:57;16.60;99.90
10155;DHT22;5118;48.570;7.916;2023-02-16T11:36:34;16.70;99.90
10155;DHT22;5118;48.570;7.916;2023-02-16T11:39:05;16.70;99.90
10155;DHT22;5118;48.570;7.916;2023-02-16T11:41:37;16.70;99.90
10155;DHT22;5118;48.570;7.916;2023-02-16T11:44:24;16.70;99.90
10155;DHT22;5118;48.570;7.916;2023-02-16T11:46:54;16.50;99.90
10155;DHT22;5118;48.570;7.916;2023-02-16T11:49:30;16.40;99.90
10155;DHT22;5118;48.570;7.916;2023-02-16T11:52:00;16.40;99.90
10155;DHT22;5118;48.570;7.916;2023-02-16T11:54:48;16.50;99.90
10155;DHT22;5118;48.570;7.916;2023-02-16T11:57:23;17.00;99.90
10155;DHT22;5118;48.570;7.916;2023-02-16T11:59:53;17.50;99.90
10155;DHT22;5118;48.570;7.916;2023-02-16T12:02:42;17.90;98.70
10155;DHT22;5118;48.570;7.916;2023-02-16T12:05:23;18.10;96.00
10155;DHT22;5118;48.570;7.916;2023-02-16T12:08:08;18.30;95.80
10155;DHT22;5118;48.570;7.916;2023-02-16T12:10:49;18.40;92.60
10155;DHT22;5118;48.570;7.916;2023-02-16T12:13:27;18.60;94.20
10155;DHT22;5118;48.570;7.916;2023-02-16T12:16:04;18.50;90.50
10155;DHT22;5118;48.570;7.916;2023-02-16T12:18:40;18.50;91.30
10155;DHT22;5118;48.570;7.916;2023-02-16T12:21:15;18.50;91.80
10155;DHT22;5118;48.570;7.916;2023-02-16T12:23:54;18.40;90.10
10155;DHT22;5118;48.570;7.916;2023-02-16T12:26:35;18.00;88.10
10155;DHT22;5118;48.570;7.916;2023-02-16T12:29:17;17.40;87.30
10155;DHT22;5118;48.570;7.916;2023-02-16T12:31:58;16.90;87.70
10155;DHT22;5118;48.570;7.916;2023-02-16T12:34:35;16.40;88.50
10155;DHT22;5118;48.570;7.916;2023-02-16T12:37:13;16.10;90.20
10155;DHT22;5118;48.570;7.916;2023-02-16T12:39:54;15.80;90.10
10155;DHT22;5118;48.570;7.916;2023-02-16T12:42:41;15.60;90.60
10155;DHT22;5118;48.570;7.916;2023-02-16T12:45:16;15.50;90.70
10155;DHT22;5118;48.570;7.916;2023-02-16T12:47:50;15.40;91.10
10155;DHT22;5118;48.570;7.916;2023-02-16T12:50:21;15.40;91.50
10155;DHT22;5118;48.570;7.916;2023-02-16T12:52:56;15.40;91.80
10155;DHT22;5118;48.570;7.916;2023-02-16T12:55:27;15.40;91.90
10155;DHT22;5118;48.570;7.916;2023-02-16T12:58:02;15.50;92.30
10155;DHT22;5118;48.570;7.916;2023-02-16T13:00:39;15.80;92.80
10155;DHT22;5118;48.570;7.916;2023-02-16T13:03:26;16.50;93.40
10155;DHT22;5118;48.570;7.916;2023-02-16T13:06:09;17.40;92.60
10155;DHT22;5118;48.570;7.916;2023-02-16T13:08:41;18.40;90.60
10155;DHT22;5118;48.570;7.916;2023-02-16T13:11:18;19.40;91.80
10155;DHT22;5118;48.570;7.916;2023-02-16T13:13:48;20.20;88.20
10155;DHT22;5118;48.570;7.916;2023-02-16T13:16:23;20.40;87.90
10155;DHT22;5118;48.570;7.916;2023-02-16T13:18:58;20.20;83.40
10155;DHT22;5118;48.570;7.916;2023-02-16T13:21:49;20.10;83.00
10155;DHT22;5118;48.570;7.916;2023-02-16T13:24:29;20.30;81.70
10155;DHT22;5118;48.570;7.916;2023-02-16T13:27:18;20.70;82.10
10155;DHT22;5118;48.570;7.916;2023-02-16T13:30:03;21.20;72.40
10155;DHT22;5118;48.570;7.916;2023-02-16T13:32:47;21.60;76.30
10155;DHT22;5118;48.570;7.916;2023-02-16T13:35:39;21.90;73.60
10155;DHT22;5118;48.570;7.916;2023-02-16T13:38:28;22.10;72.90
10155;DHT22;5118;48.570;7.916;2023-02-16T13:41:09;22.50;67.20
10155;DHT22;5118;48.570;7.916;2023-02-16T13:43:42;22.90;65.10
10155;DHT22;5118;48.570;7.916;2023-02-16T13:46:17;22.90;67.20
10155;DHT22;5118;48.570;7.916;2023-02-16T13:48:49;22.40;63.10
10155;DHT22;5118;48.570;7.916;2023-02-16T13:51:23;21.80;64.80
10155;DHT22;5118;48.570;7.916;2023-02-16T13:53:55;21.10;62.90
10155;DHT22;5118;48.570;7.916;2023-02-16T13:56:35;20.60;64.60
10155;DHT22;5118;48.570;7.916;2023-02-16T14:02:53;19.50;63.80
10155;DHT22;5118;48.570;7.916;2023-02-16T14:05:30;18.50;66.00
10155;DHT22;5118;48.570;7.916;2023-02-16T14:08:16;18.00;66.40
10155;DHT22;5118;48.570;7.916;2023-02-16T14:11:06;17.50;67.60
10155;DHT22;5118;48.570;7.916;2023-02-16T14:13:48;17.20;68.60
10155;DHT22;5118;48.570;7.916;2023-02-16T14:16:28;16.90;70.70
10155;DHT22;5118;48.570;7.916;2023-02-16T14:18:59;16.60;71.40
10155;DHT22;5118;48.570;7.916;2023-02-16T14:21:36;16.40;71.90
10155;DHT22;5118;48.570;7.916;2023-02-16T14:24:11;16.20;72.10
10155;DHT22;5118;48.570;7.916;2023-02-16T14:26:51;15.90;72.90
10155;DHT22;5118;48.570;7.916;2023-02-16T14:29:23;15.70;73.70
10155;DHT22;5118;48.570;7.916;2023-02-16T14:31:58;15.50;74.50
10155;DHT22;5118;48.570;7.916;2023-02-16T14:34:31;15.30;75.20
10155;DHT22;5118;48.570;7.916;2023-02-16T14:37:29;15.10;75.90
10155;DHT22;5118;48.570;7.916;2023-02-16T14:40:22;15.00;77.10
10155;DHT22;5118;48.570;7.916;2023-02-16T14:42:55;14.90;78.10
10155;DHT22;5118;48.570;7.916;2023-02-16T14:48:51;14.80;79.30
10155;DHT22;5118;48.570;7.916;2023-02-16T14:51:53;14.60;80.60
10155;DHT22;5118;48.570;7.916;2023-02-16T14:54:48;14.60;81.70
10155;DHT22;5118;48.570;7.916;2023-02-16T14:57:29;14.50;82.20
10155;DHT22;5118;48.570;7.916;2023-02-16T15:00:02;14.40;82.40
10155;DHT22;5118;48.570;7.916;2023-02-16T15:02:33;14.30;82.10
10155;DHT22;5118;48.570;7.916;2023-02-16T15:05:17;14.30;83.00
10155;DHT22;5118;48.570;7.916;2023-02-16T15:07:47;14.20;82.70
10155;DHT22;5118;48.570;7.916;2023-02-16T15:10:18;14.20;82.90
10155;DHT22;5118;48.570;7.916;2023-02-16T15:12:55;14.10;83.20
10155;DHT22;5118;48.570;7.916;2023-02-16T15:15:28;14.00;83.50
10155;DHT22;5118;48.570;7.916;2023-02-16T15:17:58;13.90;84.00
10155;DHT22;5118;48.570;7.916;2023-02-16T15:20:30;13.90;84.80
10155;DHT22;5118;48.570;7.916;2023-02-16T15:23:03;13.80;85.40
10155;DHT22;5118;48.570;7.916;2023-02-16T15:25:35;13.70;86.10
10155;DHT22;5118;48.570;7.916;2023-02-16T15:28:18;13.70;86.80
10155;DHT22;5118;48.570;7.916;2023-02-16T15:30:50;13.60;87.00
10155;DHT22;5118;48.570;7.916;2023-02-16T15:33:28;13.60;87.80
10155;DHT22;5118;48.570;7.916;2023-02-16T15:36:00;13.50;88.00
10155;DHT22;5118;48.570;7.916;2023-02-16T15:38:31;13.50;88.40
10155;DHT22;5118;48.570;7.916;2023-02-16T15:41:01;13.50;88.70
10155;DHT22;5118;48.570;7.916;2023-02-16T15:43:35;13.40;88.40
10155;DHT22;5118;48.570;7.916;2023-02-16T15:46:06;13.40;88.40
10155;DHT22;5118;48.570;7.916;2023-02-16T15:48:40;13.40;88.60
10155;DHT22;5118;48.570;7.916;2023-02-16T15:51:13;13.30;89.00
10155;DHT22;5118;48.570;7.916;2023-02-16T15:53:48;13.30;88.00
10155;DHT22;5118;48.570;7.916;2023-02-16T15:56:33;13.30;88.10
10155;DHT22;5118;48.570;7.916;2023-02-16T15:59:24;13.30;88.00
10155;DHT22;5118;48.570;7.916;2023-02-16T16:01:56;13.20;87.70
10155;DHT22;5118;48.570;7.916;2023-02-16T16:04:27;13.20;88.40
10155;DHT22;5118;48.570;7.916;2023-02-16T16:06:57;13.20;88.50
10155;DHT22;5118;48.570;7.916;2023-02-16T16:09:28;13.10;88.50
10155;DHT22;5118;48.570;7.916;2023-02-16T16:11:58;13.10;88.80
10155;DHT22;5118;48.570;7.916;2023-02-16T16:14:29;13.10;89.00
10155;DHT22;5118;48.570;7.916;2023-02-16T16:17:00;13.10;89.20
10155;DHT22;5118;48.570;7.916;2023-02-16T16:19:32;13.00;89.50
10155;DHT22;5118;48.570;7.916;2023-02-16T16:22:02;13.00;89.90
10155;DHT22;5118;48.570;7.916;2023-02-16T16:24:33;12.90;90.00
10155;DHT22;5118;48.570;7.916;2023-02-16T16:27:07;12.90;90.50
10155;DHT22;5118;48.570;7.916;2023-02-16T16:29:42;12.80;90.30
10155;DHT22;5118;48.570;7.916;2023-02-16T16:32:19;12.80;90.40
10155;DHT22;5118;48.570;7.916;2023-02-16T16:34:49;12.70;90.60
10155;DHT22;5118;48.570;7.916;2023-02-16T16:37:24;12.70;90.80
10155;DHT22;5118;48.570;7.916;2023-02-16T16:40:04;12.60;90.70